createdAt,value
2018-08-10T00:00:16.614Z,4.00
2018-08-10T00:01:16.624Z,4.00
2018-08-10T00:02:16.642Z,4.00
2018-08-10T00:03:16.665Z,4.00
2018-08-10T00:04:16.682Z,4.00
2018-08-10T00:05:16.689Z,4.00
2018-08-10T00:06:16.710Z,4.00
2018-08-10T00:07:16.720Z,4.00
2018-08-10T00:08:16.737Z,4.00
2018-08-10T00:09:16.757Z,4.00
2018-08-10T00:10:16.773Z,4.00
2018-08-10T00:11:16.779Z,4.00
2018-08-10T00:12:16.801Z,4.00
2018-08-10T00:13:16.818Z,4.00
2018-08-10T00:14:16.829Z,4.00
2018-08-10T00:15:16.834Z,4.00
2018-08-10T00:16:16.852Z,4.00
2018-08-10T00:17:16.873Z,4.00
2018-08-10T00:18:16.893Z,4.00
2018-08-10T00:19:16.899Z,4.00
2018-08-10T00:20:16.915Z,4.00
2018-08-10T00:21:16.934Z,4.00
2018-08-10T00:22:16.947Z,4.00
2018-08-10T00:23:16.961Z,4.00
2018-08-10T00:24:16.981Z,4.00
2018-08-10T00:25:16.992Z,4.00
2018-08-10T00:26:17.018Z,4.00
2018-08-10T00:27:17.030Z,4.00
2018-08-10T00:28:17.042Z,4.00
2018-08-10T00:29:17.058Z,4.00
2018-08-10T00:30:17.075Z,4.00
2018-08-10T00:31:17.121Z,4.00
2018-08-10T00:32:17.134Z,4.00
2018-08-10T00:33:17.123Z,4.00
2018-08-10T00:34:17.132Z,4.00
2018-08-10T00:35:17.141Z,4.00
2018-08-10T00:36:17.163Z,4.00
2018-08-10T00:37:17.186Z,4.00
2018-08-10T00:38:17.191Z,4.00
2018-08-10T00:39:17.214Z,4.00
2018-08-10T00:40:17.225Z,4.00
2018-08-10T00:41:17.240Z,4.00
2018-08-10T00:42:17.258Z,4.00
2018-08-10T00:43:17.274Z,4.00
2018-08-10T00:44:17.293Z,4.00
2018-08-10T00:45:17.303Z,4.00
2018-08-10T00:46:17.320Z,4.00
2018-08-10T00:47:17.336Z,4.00
2018-08-10T00:48:17.348Z,4.00
2018-08-10T00:49:17.364Z,4.00
2018-08-10T00:50:17.422Z,4.00
2018-08-10T00:51:17.397Z,4.00
2018-08-10T00:52:17.408Z,4.00
2018-08-10T00:53:17.427Z,4.00
2018-08-10T00:54:17.439Z,4.00
2018-08-10T00:55:17.464Z,4.00
2018-08-10T00:56:17.512Z,4.00
2018-08-10T00:57:17.485Z,4.00
2018-08-10T00:58:17.505Z,4.00
2018-08-10T00:59:17.519Z,4.00
2018-08-10T01:00:17.538Z,4.00
2018-08-10T01:01:17.550Z,4.00
2018-08-10T01:02:17.617Z,4.00
2018-08-10T01:03:17.581Z,4.00
2018-08-10T01:04:17.597Z,4.00
2018-08-10T01:05:17.607Z,4.00
2018-08-10T01:06:17.626Z,4.00
2018-08-10T01:07:17.640Z,4.00
2018-08-10T01:08:17.662Z,4.00
2018-08-10T01:09:17.667Z,4.00
2018-08-10T01:10:17.683Z,4.00
2018-08-10T01:11:17.705Z,4.00
2018-08-10T01:12:17.721Z,4.00
2018-08-10T01:13:17.761Z,4.00
2018-08-10T01:14:17.783Z,4.00
2018-08-10T01:15:17.769Z,4.00
2018-08-10T01:16:17.782Z,4.00
2018-08-10T01:17:17.797Z,4.00
2018-08-10T01:18:17.813Z,4.00
2018-08-10T01:19:17.923Z,4.00
2018-08-10T01:20:17.869Z,4.00
2018-08-10T01:21:17.865Z,4.00
2018-08-10T01:22:17.866Z,4.00
2018-08-10T01:23:17.887Z,4.00
2018-08-10T01:24:17.907Z,4.00
2018-08-10T01:25:17.929Z,4.00
2018-08-10T01:26:17.933Z,4.00
2018-08-10T01:27:17.957Z,4.00
2018-08-10T01:28:18.002Z,4.00
2018-08-10T01:29:17.971Z,4.00
2018-08-10T01:30:17.995Z,4.00
2018-08-10T01:31:18.007Z,4.00
2018-08-10T01:32:18.025Z,4.00
2018-08-10T01:33:18.041Z,4.00
2018-08-10T01:34:18.053Z,4.00
2018-08-10T01:35:18.073Z,4.00
2018-08-10T01:36:18.097Z,4.00
2018-08-10T01:37:18.109Z,4.00
2018-08-10T01:38:18.121Z,4.00
2018-08-10T01:39:18.130Z,4.00
2018-08-10T01:40:18.142Z,4.00
2018-08-10T01:41:18.166Z,4.00
2018-08-10T01:42:18.183Z,4.00
2018-08-10T01:43:18.194Z,4.00
2018-08-10T01:44:18.209Z,4.00
2018-08-10T01:45:18.229Z,4.00
2018-08-10T01:46:18.245Z,4.00
2018-08-10T01:47:18.251Z,4.00
2018-08-10T01:48:18.270Z,4.00
2018-08-10T01:49:18.285Z,4.00
2018-08-10T01:50:18.310Z,4.00
2018-08-10T01:51:18.404Z,4.00
2018-08-10T01:52:18.340Z,4.00
2018-08-10T01:53:18.353Z,4.00
2018-08-10T01:54:18.358Z,4.00
2018-08-10T01:55:18.376Z,4.00
2018-08-10T01:56:18.402Z,4.00
2018-08-10T01:57:18.436Z,4.00
2018-08-10T01:58:18.430Z,4.00
2018-08-10T01:59:18.438Z,4.00
2018-08-10T02:00:18.456Z,4.00
2018-08-10T02:01:18.522Z,4.00
2018-08-10T02:02:18.486Z,4.00
2018-08-10T02:03:18.507Z,4.00
2018-08-10T02:04:18.516Z,4.00
2018-08-10T02:05:18.588Z,4.00
2018-08-10T02:06:18.542Z,4.00
2018-08-10T02:07:18.565Z,4.00
2018-08-10T02:08:18.577Z,4.00
2018-08-10T02:09:18.596Z,4.00
2018-08-10T02:10:18.606Z,4.00
2018-08-10T02:11:18.627Z,4.00
2018-08-10T02:12:18.637Z,4.00
2018-08-10T02:13:18.654Z,4.00
2018-08-10T02:14:18.672Z,4.00
2018-08-10T02:15:18.678Z,4.00
2018-08-10T02:16:18.778Z,4.00
2018-08-10T02:17:18.720Z,4.00
2018-08-10T02:18:18.730Z,4.00
2018-08-10T02:19:18.747Z,4.00
2018-08-10T02:20:18.758Z,4.00
2018-08-10T02:21:18.778Z,4.00
2018-08-10T02:22:18.883Z,4.00
2018-08-10T02:23:18.803Z,4.00
2018-08-10T02:24:18.822Z,4.00
2018-08-10T02:25:18.838Z,4.00
2018-08-10T02:26:18.857Z,4.00
2018-08-10T02:27:18.870Z,4.00
2018-08-10T02:28:18.950Z,4.00
2018-08-10T02:29:18.902Z,4.00
2018-08-10T02:30:18.911Z,4.00
2018-08-10T02:31:18.934Z,4.00
2018-08-10T02:32:18.946Z,4.00
2018-08-10T02:33:18.962Z,4.00
2018-08-10T02:34:19.033Z,4.00
2018-08-10T02:35:19.002Z,4.00
2018-08-10T02:36:19.009Z,4.00
2018-08-10T02:37:19.021Z,4.00
2018-08-10T02:38:19.043Z,4.00
2018-08-10T02:39:19.050Z,4.00
2018-08-10T02:40:19.106Z,4.00
2018-08-10T02:41:19.079Z,4.00
2018-08-10T02:42:19.094Z,4.00
2018-08-10T02:43:19.112Z,4.00
2018-08-10T02:44:19.128Z,4.00
2018-08-10T02:45:19.146Z,4.00
2018-08-10T02:46:19.172Z,4.00
2018-08-10T02:47:19.184Z,4.00
2018-08-10T02:48:19.190Z,4.00
2018-08-10T02:49:19.210Z,4.00
2018-08-10T02:50:19.219Z,4.00
2018-08-10T02:51:19.240Z,4.00
2018-08-10T02:52:19.279Z,4.00
2018-08-10T02:53:19.268Z,4.00
2018-08-10T02:54:19.281Z,4.00
2018-08-10T02:55:19.298Z,4.00
2018-08-10T02:56:19.315Z,4.00
2018-08-10T02:57:19.325Z,4.00
2018-08-10T02:58:19.353Z,4.00
2018-08-10T02:59:19.353Z,4.00
2018-08-10T03:00:19.377Z,4.00
2018-08-10T03:01:19.393Z,4.00
2018-08-10T03:02:19.398Z,4.00
2018-08-10T03:03:19.416Z,4.00
2018-08-10T03:04:19.466Z,4.00
2018-08-10T03:05:19.461Z,4.00
2018-08-10T03:06:19.468Z,4.00
2018-08-10T03:07:19.478Z,4.00
2018-08-10T03:08:19.496Z,4.00
2018-08-10T03:09:19.517Z,4.00
2018-08-10T03:10:19.522Z,4.00
2018-08-10T03:11:19.534Z,4.00
2018-08-10T03:12:19.553Z,4.00
2018-08-10T03:13:19.570Z,4.00
2018-08-10T03:14:19.588Z,4.00
2018-08-10T03:15:19.604Z,4.00
2018-08-10T03:16:19.614Z,4.00
2018-08-10T03:17:19.630Z,4.00
2018-08-10T03:18:19.695Z,4.00
2018-08-10T03:19:19.663Z,4.00
2018-08-10T03:20:19.676Z,4.00
2018-08-10T03:21:19.694Z,4.00
2018-08-10T03:22:19.800Z,4.00
2018-08-10T03:23:19.717Z,4.00
2018-08-10T03:24:19.733Z,4.00
2018-08-10T03:25:19.754Z,4.00
2018-08-10T03:26:19.767Z,4.00
2018-08-10T03:27:19.781Z,4.00
2018-08-10T03:28:19.833Z,4.00
2018-08-10T03:29:19.813Z,4.00
2018-08-10T03:30:19.882Z,4.00
2018-08-10T03:31:19.848Z,4.00
2018-08-10T03:32:19.864Z,4.00
2018-08-10T03:33:19.880Z,4.00
2018-08-10T03:34:19.953Z,4.00
2018-08-10T03:35:19.904Z,4.00
2018-08-10T03:36:19.923Z,4.00
2018-08-10T03:37:19.943Z,4.00
2018-08-10T03:38:19.950Z,4.00
2018-08-10T03:39:19.969Z,4.00
2018-08-10T03:40:20.020Z,4.00
2018-08-10T03:41:19.997Z,4.00
2018-08-10T03:42:20.014Z,4.00
2018-08-10T03:43:20.029Z,4.00
2018-08-10T03:44:20.046Z,4.00
2018-08-10T03:45:20.059Z,4.00
2018-08-10T03:46:20.127Z,4.00
2018-08-10T03:47:20.094Z,4.00
2018-08-10T03:48:20.103Z,4.00
2018-08-10T03:49:20.121Z,4.00
2018-08-10T03:50:20.138Z,4.00
2018-08-10T03:51:20.155Z,4.00
2018-08-10T03:52:20.161Z,4.00
2018-08-10T03:53:20.187Z,4.00
2018-08-10T03:54:20.201Z,4.00
2018-08-10T03:55:20.215Z,4.00
2018-08-10T03:56:20.281Z,4.00
2018-08-10T03:57:20.247Z,4.00
2018-08-10T03:58:20.262Z,4.00
2018-08-10T03:59:20.268Z,4.00
2018-08-10T04:00:20.288Z,4.00
2018-08-10T04:01:20.305Z,4.00
2018-08-10T04:02:20.323Z,4.00
2018-08-10T04:03:20.333Z,4.00
2018-08-10T04:04:20.344Z,4.00
2018-08-10T04:05:20.365Z,4.00
2018-08-10T04:06:20.385Z,4.00
2018-08-10T04:07:20.396Z,4.00
2018-08-10T04:08:20.415Z,4.00
2018-08-10T04:09:20.426Z,4.00
2018-08-10T04:10:20.443Z,4.00
2018-08-10T04:11:20.459Z,4.00
2018-08-10T04:12:20.479Z,4.00
2018-08-10T04:13:20.488Z,4.00
2018-08-10T04:14:20.500Z,4.00
2018-08-10T04:15:20.520Z,4.00
2018-08-10T04:16:20.533Z,4.00
2018-08-10T04:17:20.546Z,4.00
2018-08-10T04:18:20.564Z,4.00
2018-08-10T04:19:20.585Z,4.00
2018-08-10T04:20:20.592Z,4.00
2018-08-10T04:21:20.646Z,4.00
2018-08-10T04:22:20.635Z,4.00
2018-08-10T04:23:20.650Z,4.00
2018-08-10T04:24:20.658Z,4.00
2018-08-10T04:25:20.673Z,4.00
2018-08-10T04:26:20.686Z,4.00
2018-08-10T04:27:20.700Z,4.00
2018-08-10T04:28:20.713Z,4.00
2018-08-10T04:29:20.730Z,4.00
2018-08-10T04:30:20.746Z,4.00
2018-08-10T04:31:20.767Z,4.00
2018-08-10T04:32:20.779Z,4.00
2018-08-10T04:33:20.799Z,4.00
2018-08-10T04:34:20.879Z,4.00
2018-08-10T04:35:20.823Z,4.00
2018-08-10T04:36:20.836Z,4.00
2018-08-10T04:37:20.863Z,4.00
2018-08-10T04:38:20.887Z,4.00
2018-08-10T04:39:20.887Z,4.00
2018-08-10T04:40:20.925Z,4.00
2018-08-10T04:41:20.920Z,4.00
2018-08-10T04:42:20.933Z,4.00
2018-08-10T04:43:20.948Z,4.00
2018-08-10T04:44:20.966Z,4.00
2018-08-10T04:45:20.981Z,4.00
2018-08-10T04:46:20.997Z,4.00
2018-08-10T04:47:21.019Z,4.00
2018-08-10T04:48:21.107Z,4.00
2018-08-10T04:49:21.041Z,4.00
2018-08-10T04:50:21.053Z,4.00
2018-08-10T04:51:21.072Z,4.00
2018-08-10T04:52:21.092Z,4.00
2018-08-10T04:53:21.103Z,4.00
2018-08-10T04:54:21.119Z,4.00
2018-08-10T04:55:21.180Z,4.00
2018-08-10T04:56:21.149Z,4.00
2018-08-10T04:57:21.157Z,4.00
2018-08-10T04:58:21.176Z,4.00
2018-08-10T04:59:21.192Z,4.00
2018-08-10T05:00:21.206Z,4.00
2018-08-10T05:01:21.225Z,4.00
2018-08-10T05:02:21.239Z,4.00
2018-08-10T05:03:21.255Z,4.00
2018-08-10T05:04:21.275Z,4.00
2018-08-10T05:05:21.301Z,4.00
2018-08-10T05:06:21.301Z,4.00
2018-08-10T05:07:21.312Z,4.00
2018-08-10T05:08:21.336Z,4.00
2018-08-10T05:09:21.341Z,4.00
2018-08-10T05:10:21.361Z,4.00
2018-08-10T05:11:21.449Z,4.00
2018-08-10T05:12:21.393Z,4.00
2018-08-10T05:13:21.406Z,4.00
2018-08-10T05:14:21.416Z,0.00
2018-08-10T05:15:21.436Z,0.00
2018-08-10T05:16:21.455Z,0.00
2018-08-10T05:17:21.560Z,0.00
2018-08-10T05:18:21.477Z,0.00
2018-08-10T05:19:21.497Z,4.00
2018-08-10T05:20:21.511Z,4.00
2018-08-10T05:21:21.524Z,4.00
2018-08-10T05:22:21.553Z,0.00
2018-08-10T05:23:21.561Z,4.00
2018-08-10T05:24:21.579Z,4.00
2018-08-10T05:25:21.588Z,4.00
2018-08-10T05:26:21.634Z,8.00
2018-08-10T05:27:21.626Z,8.00
2018-08-10T05:28:21.644Z,8.00
2018-08-10T05:29:21.695Z,8.00
2018-08-10T05:30:21.665Z,8.00
2018-08-10T05:31:21.681Z,12.00
2018-08-10T05:32:21.700Z,16.00
2018-08-10T05:33:21.715Z,16.00
2018-08-10T05:34:21.735Z,16.00
2018-08-10T05:35:21.745Z,20.00
2018-08-10T05:36:21.763Z,24.00
2018-08-10T05:37:21.777Z,28.00
2018-08-10T05:38:21.798Z,32.00
2018-08-10T05:39:21.808Z,36.00
2018-08-10T05:40:21.817Z,44.00
2018-08-10T05:41:21.917Z,52.00
2018-08-10T05:42:21.849Z,60.00
2018-08-10T05:43:21.867Z,64.00
2018-08-10T05:44:21.885Z,76.00
2018-08-10T05:45:21.899Z,84.00
2018-08-10T05:46:21.953Z,96.00
2018-08-10T05:47:21.932Z,104.00
2018-08-10T05:48:22.052Z,116.00
2018-08-10T05:49:21.955Z,128.00
2018-08-10T05:50:21.969Z,144.00
2018-08-10T05:51:21.988Z,156.00
2018-08-10T05:52:22.011Z,168.00
2018-08-10T05:53:22.018Z,184.00
2018-08-10T05:54:22.043Z,200.00
2018-08-10T05:55:22.049Z,220.00
2018-08-10T05:56:22.067Z,236.00
2018-08-10T05:57:22.084Z,252.00
2018-08-10T05:58:22.108Z,272.00
2018-08-10T05:59:22.108Z,288.00
2018-08-10T06:00:22.143Z,312.00
2018-08-10T06:01:22.151Z,332.00
2018-08-10T06:02:22.159Z,348.00
2018-08-10T06:03:22.192Z,368.00
2018-08-10T06:04:22.191Z,392.00
2018-08-10T06:05:22.210Z,412.00
2018-08-10T06:06:22.224Z,428.00
2018-08-10T06:07:22.241Z,452.00
2018-08-10T06:08:22.248Z,472.00
2018-08-10T06:09:22.266Z,492.00
2018-08-10T06:10:22.282Z,516.00
2018-08-10T06:11:22.304Z,536.00
2018-08-10T06:12:22.549Z,560.00
2018-08-10T06:13:22.332Z,588.00
2018-08-10T06:14:22.346Z,604.00
2018-08-10T06:15:22.510Z,624.00
2018-08-10T06:16:22.383Z,644.00
2018-08-10T06:17:22.396Z,664.00
2018-08-10T06:18:22.561Z,688.00
2018-08-10T06:19:22.484Z,704.00
2018-08-10T06:20:22.443Z,724.00
2018-08-10T06:21:22.455Z,740.00
2018-08-10T06:22:22.471Z,756.00
2018-08-10T06:23:22.487Z,772.00
2018-08-10T06:24:22.499Z,788.00
2018-08-10T06:25:22.512Z,804.00
2018-08-10T06:26:22.528Z,824.00
2018-08-10T06:27:22.547Z,840.00
2018-08-10T06:28:22.561Z,840.00
2018-08-10T06:29:22.585Z,876.00
2018-08-10T06:30:22.622Z,896.00
2018-08-10T06:31:22.608Z,920.00
2018-08-10T06:32:22.624Z,932.00
2018-08-10T06:33:22.642Z,948.00
2018-08-10T06:34:22.662Z,964.00
2018-08-10T06:35:22.670Z,980.00
2018-08-10T06:36:22.787Z,1000.00
2018-08-10T06:37:22.697Z,1020.00
2018-08-10T06:38:22.720Z,1036.00
2018-08-10T06:39:22.736Z,1056.00
2018-08-10T06:40:22.758Z,1076.00
2018-08-10T06:41:22.768Z,1096.00
2018-08-10T06:42:22.866Z,1120.00
2018-08-10T06:43:22.793Z,1144.00
2018-08-10T06:44:22.813Z,1168.00
2018-08-10T06:45:22.912Z,1200.00
2018-08-10T06:46:22.844Z,1232.00
2018-08-10T06:47:22.860Z,1272.00
2018-08-10T06:48:22.913Z,1320.00
2018-08-10T06:49:22.890Z,1368.00
2018-08-10T06:50:22.898Z,1416.00
2018-08-10T06:51:22.923Z,1484.00
2018-08-10T06:52:22.936Z,1568.00
2018-08-10T06:53:22.950Z,1672.00
2018-08-10T06:54:23.054Z,1824.00
2018-08-10T06:55:22.980Z,2052.00
2018-08-10T06:56:23.000Z,2356.00
2018-08-10T06:57:23.014Z,2760.00
2018-08-10T06:58:23.033Z,3224.00
2018-08-10T06:59:23.048Z,3568.00
2018-08-10T07:00:23.110Z,3752.00
2018-08-10T07:01:23.140Z,3880.00
2018-08-10T07:02:23.096Z,4008.00
2018-08-10T07:03:23.107Z,4136.00
2018-08-10T07:04:23.126Z,4244.00
2018-08-10T07:05:23.146Z,4364.00
2018-08-10T07:06:23.158Z,4464.00
2018-08-10T07:07:23.209Z,4568.00
2018-08-10T07:08:23.188Z,4644.00
2018-08-10T07:09:23.207Z,4740.00
2018-08-10T07:10:23.230Z,4832.00
2018-08-10T07:11:23.234Z,4912.00
2018-08-10T07:12:23.260Z,5000.00
2018-08-10T07:13:23.382Z,5088.00
2018-08-10T07:14:23.291Z,5160.00
2018-08-10T07:15:23.304Z,5244.00
2018-08-10T07:16:23.325Z,5328.00
2018-08-10T07:17:23.333Z,5400.00
2018-08-10T07:18:23.399Z,5480.00
2018-08-10T07:19:23.394Z,5576.00
2018-08-10T07:20:23.383Z,5656.00
2018-08-10T07:21:23.557Z,5760.00
2018-08-10T07:22:23.413Z,5816.00
2018-08-10T07:23:23.438Z,5888.00
2018-08-10T07:24:23.457Z,5972.00
2018-08-10T07:25:23.467Z,6040.00
2018-08-10T07:26:23.494Z,6100.00
2018-08-10T07:27:23.499Z,6180.00
2018-08-10T07:28:23.519Z,6260.00
2018-08-10T07:29:23.534Z,6324.00
2018-08-10T07:30:23.556Z,6380.00
2018-08-10T07:31:23.582Z,6424.00
2018-08-10T07:32:23.585Z,6500.00
2018-08-10T07:33:23.605Z,6576.00
2018-08-10T07:34:23.622Z,6636.00
2018-08-10T07:35:23.638Z,6720.00
2018-08-10T07:36:23.659Z,6776.00
2018-08-10T07:37:23.677Z,6848.00
2018-08-10T07:38:23.738Z,6908.00
2018-08-10T07:39:23.711Z,6972.00
2018-08-10T07:40:23.730Z,7028.00
2018-08-10T07:41:23.738Z,7072.00
2018-08-10T07:42:23.765Z,7140.00
2018-08-10T07:43:23.775Z,7216.00
2018-08-10T07:44:23.793Z,7244.00
2018-08-10T07:45:23.802Z,7412.00
2018-08-10T07:46:23.840Z,7476.00
2018-08-10T07:47:23.843Z,7540.00
2018-08-10T07:48:23.860Z,7612.00
2018-08-10T07:49:23.885Z,7664.00
2018-08-10T07:50:23.897Z,7728.00
2018-08-10T07:51:23.927Z,7784.00
2018-08-10T07:52:23.936Z,7612.00
2018-08-10T07:53:23.947Z,7840.00
2018-08-10T07:54:23.968Z,7888.00
2018-08-10T07:55:24.071Z,7948.00
2018-08-10T07:56:24.056Z,7996.00
2018-08-10T07:57:24.030Z,8052.00
2018-08-10T07:58:24.042Z,8116.00
2018-08-10T07:59:24.079Z,8196.00
2018-08-10T08:00:24.077Z,8252.00
2018-08-10T08:01:24.100Z,8304.00
2018-08-10T08:02:24.112Z,8356.00
2018-08-10T08:03:24.314Z,8420.00
2018-08-10T08:04:24.155Z,8376.00
2018-08-10T08:05:24.175Z,8544.00
2018-08-10T08:06:24.193Z,8576.00
2018-08-10T08:07:24.208Z,8660.00
2018-08-10T08:08:24.220Z,8672.00
2018-08-10T08:09:24.299Z,8692.00
2018-08-10T08:10:24.273Z,8796.00
2018-08-10T08:11:24.288Z,8820.00
2018-08-10T08:12:24.305Z,8896.00
2018-08-10T08:13:24.322Z,8952.00
2018-08-10T08:14:24.330Z,8988.00
2018-08-10T08:15:24.356Z,9048.00
2018-08-10T08:16:24.365Z,9096.00
2018-08-10T08:17:24.391Z,9192.00
2018-08-10T08:18:24.407Z,9208.00
2018-08-10T08:19:24.545Z,9288.00
2018-08-10T08:20:24.450Z,9352.00
2018-08-10T08:21:24.619Z,9420.00
2018-08-10T08:22:24.480Z,9452.00
2018-08-10T08:23:24.493Z,9500.00
2018-08-10T08:24:24.728Z,9508.00
2018-08-10T08:25:24.636Z,9624.00
2018-08-10T08:26:24.552Z,9664.00
2018-08-10T08:27:24.580Z,9712.00
2018-08-10T08:28:24.600Z,9772.00
2018-08-10T08:29:24.611Z,9848.00
2018-08-10T08:30:24.629Z,9876.00
2018-08-10T08:31:24.647Z,9924.00
2018-08-10T08:32:24.725Z,9948.00
2018-08-10T08:33:24.686Z,10020.00
2018-08-10T08:34:24.708Z,10044.00
2018-08-10T08:35:24.726Z,10104.00
2018-08-10T08:36:24.756Z,10220.00
2018-08-10T08:37:24.765Z,10220.00
2018-08-10T08:38:24.860Z,10264.00
2018-08-10T08:39:24.807Z,10316.00
2018-08-10T08:40:24.820Z,10372.00
2018-08-10T08:41:24.838Z,10428.00
2018-08-10T08:42:24.857Z,10460.00
2018-08-10T08:43:24.885Z,10532.00
2018-08-10T08:44:24.902Z,10560.00
2018-08-10T08:45:24.996Z,10612.00
2018-08-10T08:46:25.249Z,10616.00
2018-08-10T08:47:24.951Z,10656.00
2018-08-10T08:48:24.971Z,10712.00
2018-08-10T08:49:24.994Z,10640.00
2018-08-10T08:50:25.010Z,10824.00
2018-08-10T08:51:25.079Z,10852.00
2018-08-10T08:52:25.045Z,10892.00
2018-08-10T08:53:25.072Z,10944.00
2018-08-10T08:54:25.128Z,10972.00
2018-08-10T08:55:25.102Z,11036.00
2018-08-10T08:56:25.137Z,10908.00
2018-08-10T08:57:25.149Z,11108.00
2018-08-10T08:58:25.166Z,11112.00
2018-08-10T08:59:25.206Z,11184.00
2018-08-10T09:00:25.216Z,11200.00
2018-08-10T09:01:25.229Z,11268.00
2018-08-10T09:02:25.249Z,11304.00
2018-08-10T09:03:25.273Z,11372.00
2018-08-10T09:04:25.309Z,11376.00
2018-08-10T09:05:25.306Z,11412.00
2018-08-10T09:06:25.323Z,11452.00
2018-08-10T09:07:25.459Z,11496.00
2018-08-10T09:08:25.369Z,11504.00
2018-08-10T09:09:25.389Z,11536.00
2018-08-10T09:10:25.398Z,11616.00
2018-08-10T09:11:25.445Z,11652.00
2018-08-10T09:12:25.444Z,11688.00
2018-08-10T09:13:25.458Z,11732.00
2018-08-10T09:14:25.533Z,11744.00
2018-08-10T09:15:25.504Z,11792.00
2018-08-10T09:16:25.519Z,11812.00
2018-08-10T09:17:25.621Z,11884.00
2018-08-10T09:18:25.569Z,11908.00
2018-08-10T09:19:25.584Z,11928.00
2018-08-10T09:20:25.603Z,11912.00
2018-08-10T09:21:25.628Z,11980.00
2018-08-10T09:22:25.690Z,11980.00
2018-08-10T09:23:25.767Z,12028.00
2018-08-10T09:24:25.681Z,12076.00
2018-08-10T09:25:25.755Z,12096.00
2018-08-10T09:26:25.777Z,12144.00
2018-08-10T09:27:25.846Z,12172.00
2018-08-10T09:28:25.815Z,12196.00
2018-08-10T09:29:25.846Z,12204.00
2018-08-10T09:30:25.813Z,12252.00
2018-08-10T09:31:25.827Z,12296.00
2018-08-10T09:32:25.848Z,12340.00
2018-08-10T09:33:25.873Z,12372.00
2018-08-10T09:34:25.964Z,12416.00
2018-08-10T09:35:25.905Z,12408.00
2018-08-10T09:36:25.935Z,12448.00
2018-08-10T09:37:25.957Z,12496.00
2018-08-10T09:38:26.007Z,12544.00
2018-08-10T09:39:25.994Z,12504.00
2018-08-10T09:40:26.018Z,12568.00
2018-08-10T09:41:26.037Z,12572.00
2018-08-10T09:42:26.058Z,12616.00
2018-08-10T09:43:26.071Z,12656.00
2018-08-10T09:44:26.092Z,12684.00
2018-08-10T09:45:26.209Z,12700.00
2018-08-10T09:46:26.136Z,12748.00
2018-08-10T09:47:26.163Z,12756.00
2018-08-10T09:48:26.179Z,12796.00
2018-08-10T09:49:26.197Z,12824.00
2018-08-10T09:50:26.223Z,12828.00
2018-08-10T09:51:26.246Z,12784.00
2018-08-10T09:52:26.266Z,12840.00
2018-08-10T09:53:26.285Z,12856.00
2018-08-10T09:54:26.308Z,12884.00
2018-08-10T09:55:26.321Z,12932.00
2018-08-10T09:56:26.353Z,12960.00
2018-08-10T09:57:26.373Z,12976.00
2018-08-10T09:58:26.387Z,13028.00
2018-08-10T09:59:26.445Z,13008.00
2018-08-10T10:00:26.438Z,13024.00
2018-08-10T10:01:26.453Z,13036.00
2018-08-10T10:02:26.480Z,13032.00
2018-08-10T10:03:26.508Z,13156.00
2018-08-10T10:04:26.521Z,13188.00
2018-08-10T10:05:26.547Z,13156.00
2018-08-10T10:06:26.565Z,13220.00
2018-08-10T10:07:26.587Z,13220.00
2018-08-10T10:08:26.603Z,13272.00
2018-08-10T10:09:26.628Z,13316.00
2018-08-10T10:10:26.644Z,13352.00
2018-08-10T10:11:26.669Z,13340.00
2018-08-10T10:12:26.690Z,13384.00
2018-08-10T10:13:26.708Z,13388.00
2018-08-10T10:14:26.733Z,13376.00
2018-08-10T10:15:26.758Z,13452.00
2018-08-10T10:16:26.778Z,13476.00
2018-08-10T10:17:26.908Z,13500.00
2018-08-10T10:18:26.832Z,13488.00
2018-08-10T10:19:26.836Z,13536.00
2018-08-10T10:20:26.857Z,13416.00
2018-08-10T10:21:26.886Z,13488.00
2018-08-10T10:22:26.903Z,13584.00
2018-08-10T10:23:26.935Z,13620.00
2018-08-10T10:24:26.944Z,13564.00
2018-08-10T10:25:26.978Z,13620.00
2018-08-10T10:26:26.992Z,13660.00
2018-08-10T10:27:27.069Z,13712.00
2018-08-10T10:28:27.271Z,13744.00
2018-08-10T10:29:27.057Z,13776.00
2018-08-10T10:30:27.076Z,13808.00
2018-08-10T10:31:27.154Z,13788.00
2018-08-10T10:32:27.182Z,13772.00
2018-08-10T10:33:27.148Z,13824.00
2018-08-10T10:34:27.171Z,13832.00
2018-08-10T10:35:27.188Z,13856.00
2018-08-10T10:36:27.239Z,13880.00
2018-08-10T10:37:27.236Z,13840.00
2018-08-10T10:38:27.262Z,13868.00
2018-08-10T10:39:27.282Z,13956.00
2018-08-10T10:40:27.300Z,13964.00
2018-08-10T10:41:27.415Z,13960.00
2018-08-10T10:42:27.366Z,13912.00
2018-08-10T10:43:27.365Z,13984.00
2018-08-10T10:44:27.386Z,13984.00
2018-08-10T10:45:27.406Z,14028.00
2018-08-10T10:46:27.430Z,13976.00
2018-08-10T10:47:27.514Z,13992.00
2018-08-10T10:48:27.483Z,14020.00
2018-08-10T10:49:27.506Z,13988.00
2018-08-10T10:50:27.539Z,13880.00
2018-08-10T10:51:27.551Z,14052.00
2018-08-10T10:52:27.565Z,14056.00
2018-08-10T10:53:27.602Z,14132.00
2018-08-10T10:54:27.613Z,14132.00
2018-08-10T10:55:27.766Z,14148.00
2018-08-10T10:56:27.734Z,14108.00
2018-08-10T10:57:27.686Z,14120.00
2018-08-10T10:58:27.711Z,14172.00
2018-08-10T10:59:27.722Z,14204.00
2018-08-10T11:00:27.751Z,14184.00
2018-08-10T11:01:27.849Z,14212.00
2018-08-10T11:02:27.804Z,14216.00
2018-08-10T11:03:27.811Z,14204.00
2018-08-10T11:04:27.845Z,14232.00
2018-08-10T11:05:27.863Z,14248.00
2018-08-10T11:06:27.943Z,14220.00
2018-08-10T11:07:27.919Z,14276.00
2018-08-10T11:08:27.938Z,14240.00
2018-08-10T11:09:27.968Z,14284.00
2018-08-10T11:10:27.986Z,14228.00
2018-08-10T11:11:27.997Z,13912.00
2018-08-10T11:12:28.020Z,14312.00
2018-08-10T11:13:28.047Z,14340.00
2018-08-10T11:14:28.069Z,14332.00
2018-08-10T11:15:28.095Z,14328.00
2018-08-10T11:16:28.111Z,14276.00
2018-08-10T11:17:28.136Z,14356.00
2018-08-10T11:18:28.154Z,14332.00
2018-08-10T11:19:28.187Z,14352.00
2018-08-10T11:20:28.207Z,14316.00
2018-08-10T11:21:28.230Z,14560.00
2018-08-10T11:22:28.257Z,14336.00
2018-08-10T11:23:28.275Z,14528.00
2018-08-10T11:24:28.302Z,14528.00
2018-08-10T11:25:28.532Z,14592.00
2018-08-10T11:26:28.403Z,14624.00
2018-08-10T11:27:28.384Z,14624.00
2018-08-10T11:28:28.452Z,14624.00
2018-08-10T11:29:28.413Z,14624.00
2018-08-10T11:30:28.443Z,14624.00
2018-08-10T11:31:28.513Z,14656.00
2018-08-10T11:32:28.588Z,14592.00
2018-08-10T11:33:28.509Z,14592.00
2018-08-10T11:34:28.637Z,14624.00
2018-08-10T11:35:28.556Z,14624.00
2018-08-10T11:36:28.674Z,14688.00
2018-08-10T11:37:28.608Z,14688.00
2018-08-10T11:38:28.625Z,14624.00
2018-08-10T11:39:28.645Z,14624.00
2018-08-10T11:40:28.670Z,14592.00
2018-08-10T11:41:28.717Z,14656.00
2018-08-10T11:42:28.720Z,14624.00
2018-08-10T11:43:28.752Z,14656.00
2018-08-10T11:44:28.766Z,14624.00
2018-08-10T11:45:28.804Z,14656.00
2018-08-10T11:46:28.816Z,14560.00
2018-08-10T11:47:28.840Z,14656.00
2018-08-10T11:48:28.868Z,14592.00
2018-08-10T11:49:28.880Z,14592.00
2018-08-10T11:50:28.901Z,14592.00
2018-08-10T11:51:28.932Z,14592.00
2018-08-10T11:52:28.974Z,14656.00
2018-08-10T11:53:28.979Z,14656.00
2018-08-10T11:54:29.016Z,14592.00
2018-08-10T11:55:29.022Z,14656.00
2018-08-10T11:56:29.052Z,14624.00
2018-08-10T11:57:29.175Z,14560.00
2018-08-10T11:58:29.097Z,14656.00
2018-08-10T11:59:29.125Z,14592.00
2018-08-10T12:00:29.146Z,14624.00
2018-08-10T12:01:29.170Z,14624.00
2018-08-10T12:02:29.217Z,14624.00
2018-08-10T12:03:29.221Z,14624.00
2018-08-10T12:04:29.241Z,14656.00
2018-08-10T12:05:29.271Z,14656.00
2018-08-10T12:06:29.291Z,14688.00
2018-08-10T12:07:29.305Z,14688.00
2018-08-10T12:08:29.339Z,14688.00
2018-08-10T12:09:29.356Z,14656.00
2018-08-10T12:10:29.490Z,14592.00
2018-08-10T12:11:29.405Z,14624.00
2018-08-10T12:12:29.488Z,14624.00
2018-08-10T12:13:29.463Z,14560.00
2018-08-10T12:14:29.481Z,14560.00
2018-08-10T12:15:29.504Z,14024.00
2018-08-10T12:16:29.566Z,14248.00
2018-08-10T12:17:29.621Z,14656.00
2018-08-10T12:18:29.577Z,14624.00
2018-08-10T12:19:29.601Z,14624.00
2018-08-10T12:20:29.624Z,14592.00
2018-08-10T12:21:29.660Z,14592.00
2018-08-10T12:22:29.680Z,14624.00
2018-08-10T12:23:29.694Z,14592.00
2018-08-10T12:24:29.720Z,14624.00
2018-08-10T12:25:29.741Z,14624.00
2018-08-10T12:26:29.774Z,14592.00
2018-08-10T12:27:29.793Z,14592.00
2018-08-10T12:28:29.812Z,14560.00
2018-08-10T12:29:29.882Z,14624.00
2018-08-10T12:30:29.861Z,14592.00
2018-08-10T12:31:29.896Z,14592.00